sensor_id;sensor_type;location;lat;lon;timestamp;P1;durP1;ratioP1;P2;durP2;ratioP2
19049;SDS011;9657;45.940;12.840;2022-07-06T00:01:17;2.65;;;2.45;;
19049;SDS011;9657;45.940;12.840;2022-07-06T00:03:45;3.88;;;3.00;;
19049;SDS011;9657;45.940;12.840;2022-07-06T00:06:12;3.08;;;2.60;;
19049;SDS011;9657;45.940;12.840;2022-07-06T00:08:41;3.35;;;2.70;;
19049;SDS011;9657;45.940;12.840;2022-07-06T00:11:11;2.70;;;2.47;;
19049;SDS011;9657;45.940;12.840;2022-07-06T00:13:38;3.63;;;2.50;;
19049;SDS011;9657;45.940;12.840;2022-07-06T00:16:05;3.67;;;2.75;;
19049;SDS011;9657;45.940;12.840;2022-07-06T00:18:33;3.28;;;2.45;;
19049;SDS011;9657;45.940;12.840;2022-07-06T00:21:00;2.88;;;2.08;;
19049;SDS011;9657;45.940;12.840;2022-07-06T00:23:27;3.47;;;2.42;;
19049;SDS011;9657;45.940;12.840;2022-07-06T00:25:55;2.65;;;2.25;;
19049;SDS011;9657;45.940;12.840;2022-07-06T00:28:24;3.10;;;2.35;;
19049;SDS011;9657;45.940;12.840;2022-07-06T00:30:52;2.58;;;2.00;;
19049;SDS011;9657;45.940;12.840;2022-07-06T00:33:19;2.42;;;2.22;;
19049;SDS011;9657;45.940;12.840;2022-07-06T00:35:47;2.00;;;1.90;;
19049;SDS011;9657;45.940;12.840;2022-07-06T00:38:14;2.20;;;2.00;;
19049;SDS011;9657;45.940;12.840;2022-07-06T00:40:42;4.15;;;2.30;;
19049;SDS011;9657;45.940;12.840;2022-07-06T00:43:09;2.15;;;1.95;;
19049;SDS011;9657;45.940;12.840;2022-07-06T00:45:38;2.10;;;1.90;;
19049;SDS011;9657;45.940;12.840;2022-07-06T00:48:05;2.05;;;1.83;;
19049;SDS011;9657;45.940;12.840;2022-07-06T00:50:33;1.98;;;1.77;;
19049;SDS011;9657;45.940;12.840;2022-07-06T00:53:01;2.03;;;1.80;;
19049;SDS011;9657;45.940;12.840;2022-07-06T00:55:32;3.65;;;1.83;;
19049;SDS011;9657;45.940;12.840;2022-07-06T00:58:00;2.28;;;1.88;;
19049;SDS011;9657;45.940;12.840;2022-07-06T01:03:05;2.35;;;1.70;;
19049;SDS011;9657;45.940;12.840;2022-07-06T01:05:33;2.42;;;1.75;;
19049;SDS011;9657;45.940;12.840;2022-07-06T01:08:01;2.22;;;1.60;;
19049;SDS011;9657;45.940;12.840;2022-07-06T01:10:29;2.55;;;1.85;;
19049;SDS011;9657;45.940;12.840;2022-07-06T01:12:56;1.90;;;1.80;;
19049;SDS011;9657;45.940;12.840;2022-07-06T01:15:24;2.25;;;1.60;;
19049;SDS011;9657;45.940;12.840;2022-07-06T01:17:51;2.00;;;1.80;;
19049;SDS011;9657;45.940;12.840;2022-07-06T01:20:21;1.80;;;1.70;;
19049;SDS011;9657;45.940;12.840;2022-07-06T01:22:49;2.10;;;1.73;;
19049;SDS011;9657;45.940;12.840;2022-07-06T01:25:17;2.20;;;1.58;;
19049;SDS011;9657;45.940;12.840;2022-07-06T01:27:45;1.95;;;1.75;;
19049;SDS011;9657;45.940;12.840;2022-07-06T01:30:13;1.90;;;1.67;;
19049;SDS011;9657;45.940;12.840;2022-07-06T01:32:41;2.10;;;1.70;;
19049;SDS011;9657;45.940;12.840;2022-07-06T01:35:10;2.30;;;1.83;;
19049;SDS011;9657;45.940;12.840;2022-07-06T01:37:40;3.17;;;1.85;;
19049;SDS011;9657;45.940;12.840;2022-07-06T01:40:08;2.78;;;2.17;;
19049;SDS011;9657;45.940;12.840;2022-07-06T01:42:37;1.90;;;1.80;;
19049;SDS011;9657;45.940;12.840;2022-07-06T01:45:05;2.97;;;1.85;;
19049;SDS011;9657;45.940;12.840;2022-07-06T01:47:33;1.50;;;1.40;;
19049;SDS011;9657;45.940;12.840;2022-07-06T01:50:00;2.22;;;1.60;;
19049;SDS011;9657;45.940;12.840;2022-07-06T01:52:29;3.13;;;1.98;;
19049;SDS011;9657;45.940;12.840;2022-07-06T01:54:58;1.90;;;1.67;;
19049;SDS011;9657;45.940;12.840;2022-07-06T01:57:25;2.58;;;1.90;;
19049;SDS011;9657;45.940;12.840;2022-07-06T01:59:52;2.38;;;1.63;;
19049;SDS011;9657;45.940;12.840;2022-07-06T02:02:19;3.35;;;1.65;;
19049;SDS011;9657;45.940;12.840;2022-07-06T02:04:46;2.13;;;1.63;;
19049;SDS011;9657;45.940;12.840;2022-07-06T02:07:13;1.92;;;1.50;;
19049;SDS011;9657;45.940;12.840;2022-07-06T02:09:40;3.40;;;1.63;;
19049;SDS011;9657;45.940;12.840;2022-07-06T02:12:09;2.47;;;1.50;;
19049;SDS011;9657;45.940;12.840;2022-07-06T02:14:36;2.80;;;1.60;;
19049;SDS011;9657;45.940;12.840;2022-07-06T02:17:03;2.58;;;1.48;;
19049;SDS011;9657;45.940;12.840;2022-07-06T02:19:30;1.85;;;1.70;;
19049;SDS011;9657;45.940;12.840;2022-07-06T02:21:57;3.13;;;1.75;;
19049;SDS011;9657;45.940;12.840;2022-07-06T02:24:24;2.67;;;1.45;;
19049;SDS011;9657;45.940;12.840;2022-07-06T02:26:51;1.73;;;1.52;;
19049;SDS011;9657;45.940;12.840;2022-07-06T02:29:20;3.65;;;1.70;;
19049;SDS011;9657;45.940;12.840;2022-07-06T02:31:47;1.52;;;1.42;;
19049;SDS011;9657;45.940;12.840;2022-07-06T02:34:14;1.73;;;1.63;;
19049;SDS011;9657;45.940;12.840;2022-07-06T02:36:41;1.45;;;1.30;;
19049;SDS011;9657;45.940;12.840;2022-07-06T02:39:08;2.10;;;1.50;;
19049;SDS011;9657;45.940;12.840;2022-07-06T02:41:36;1.73;;;1.48;;
19049;SDS011;9657;45.940;12.840;2022-07-06T02:44:03;2.08;;;1.65;;
19049;SDS011;9657;45.940;12.840;2022-07-06T02:46:31;1.40;;;1.30;;
19049;SDS011;9657;45.940;12.840;2022-07-06T02:48:58;2.55;;;1.40;;
19049;SDS011;9657;45.940;12.840;2022-07-06T02:51:25;3.03;;;1.67;;
19049;SDS011;9657;45.940;12.840;2022-07-06T02:53:52;3.17;;;1.60;;
19049;SDS011;9657;45.940;12.840;2022-07-06T02:56:19;2.08;;;1.50;;
19049;SDS011;9657;45.940;12.840;2022-07-06T02:58:46;2.22;;;1.45;;
19049;SDS011;9657;45.940;12.840;2022-07-06T03:01:14;2.92;;;1.75;;
19049;SDS011;9657;45.940;12.840;2022-07-06T03:03:42;2.08;;;1.42;;
19049;SDS011;9657;45.940;12.840;2022-07-06T03:06:09;2.53;;;1.50;;
19049;SDS011;9657;45.940;12.840;2022-07-06T03:08:36;2.15;;;1.50;;
19049;SDS011;9657;45.940;12.840;2022-07-06T03:11:03;3.83;;;2.05;;
19049;SDS011;9657;45.940;12.840;2022-07-06T03:13:30;1.88;;;1.77;;
19049;SDS011;9657;45.940;12.840;2022-07-06T03:15:57;2.10;;;1.70;;
19049;SDS011;9657;45.940;12.840;2022-07-06T03:18:24;1.50;;;1.40;;
19049;SDS011;9657;45.940;12.840;2022-07-06T03:20:53;3.50;;;1.58;;
19049;SDS011;9657;45.940;12.840;2022-07-06T03:23:20;1.75;;;1.65;;
19049;SDS011;9657;45.940;12.840;2022-07-06T03:25:48;1.80;;;1.67;;
19049;SDS011;9657;45.940;12.840;2022-07-06T03:28:15;1.50;;;1.40;;
19049;SDS011;9657;45.940;12.840;2022-07-06T03:30:42;2.17;;;1.98;;
19049;SDS011;9657;45.940;12.840;2022-07-06T03:33:09;1.45;;;1.35;;
19049;SDS011;9657;45.940;12.840;2022-07-06T03:35:36;1.63;;;1.38;;
19049;SDS011;9657;45.940;12.840;2022-07-06T03:38:04;1.50;;;1.40;;
19049;SDS011;9657;45.940;12.840;2022-07-06T03:40:31;1.92;;;1.70;;
19049;SDS011;9657;45.940;12.840;2022-07-06T03:42:59;2.25;;;1.58;;
19049;SDS011;9657;45.940;12.840;2022-07-06T03:45:26;2.92;;;1.80;;
19049;SDS011;9657;45.940;12.840;2022-07-06T03:47:53;1.67;;;1.58;;
19049;SDS011;9657;45.940;12.840;2022-07-06T03:50:20;1.55;;;1.40;;
19049;SDS011;9657;45.940;12.840;2022-07-06T03:52:47;1.95;;;1.60;;
19049;SDS011;9657;45.940;12.840;2022-07-06T03:55:16;2.92;;;2.00;;
19049;SDS011;9657;45.940;12.840;2022-07-06T03:57:43;2.00;;;1.80;;
19049;SDS011;9657;45.940;12.840;2022-07-06T04:00:10;1.73;;;1.50;;
19049;SDS011;9657;45.940;12.840;2022-07-06T04:02:38;3.25;;;1.60;;
19049;SDS011;9657;45.940;12.840;2022-07-06T04:05:05;1.55;;;1.45;;
19049;SDS011;9657;45.940;12.840;2022-07-06T04:07:33;1.80;;;1.70;;
19049;SDS011;9657;45.940;12.840;2022-07-06T04:10:00;1.67;;;1.55;;
19049;SDS011;9657;45.940;12.840;2022-07-06T04:12:29;2.10;;;1.67;;
19049;SDS011;9657;45.940;12.840;2022-07-06T04:14:56;1.63;;;1.42;;
19049;SDS011;9657;45.940;12.840;2022-07-06T04:17:23;1.60;;;1.35;;
19049;SDS011;9657;45.940;12.840;2022-07-06T04:20:07;2.75;;;1.52;;
19049;SDS011;9657;45.940;12.840;2022-07-06T04:22:36;1.60;;;1.50;;
19049;SDS011;9657;45.940;12.840;2022-07-06T04:25:04;2.03;;;1.60;;
19049;SDS011;9657;45.940;12.840;2022-07-06T04:27:33;3.72;;;1.60;;
19049;SDS011;9657;45.940;12.840;2022-07-06T04:30:00;3.28;;;1.60;;
19049;SDS011;9657;45.940;12.840;2022-07-06T04:32:27;1.60;;;1.33;;
19049;SDS011;9657;45.940;12.840;2022-07-06T04:34:54;1.67;;;1.58;;
19049;SDS011;9657;45.940;12.840;2022-07-06T04:37:21;1.85;;;1.70;;
19049;SDS011;9657;45.940;12.840;2022-07-06T04:39:49;1.70;;;1.58;;
19049;SDS011;9657;45.940;12.840;2022-07-06T04:42:16;1.83;;;1.67;;
19049;SDS011;9657;45.940;12.840;2022-07-06T04:44:44;2.13;;;1.90;;
19049;SDS011;9657;45.940;12.840;2022-07-06T04:47:11;1.50;;;1.33;;
19049;SDS011;9657;45.940;12.840;2022-07-06T04:49:38;2.28;;;1.40;;
19049;SDS011;9657;45.940;12.840;2022-07-06T04:52:06;2.00;;;1.80;;
19049;SDS011;9657;45.940;12.840;2022-07-06T04:54:33;1.70;;;1.58;;
19049;SDS011;9657;45.940;12.840;2022-07-06T04:57:00;2.35;;;1.60;;
19049;SDS011;9657;45.940;12.840;2022-07-06T04:59:27;4.72;;;1.98;;
19049;SDS011;9657;45.940;12.840;2022-07-06T05:01:56;1.95;;;1.77;;
19049;SDS011;9657;45.940;12.840;2022-07-06T05:04:23;1.73;;;1.55;;
19049;SDS011;9657;45.940;12.840;2022-07-06T05:06:50;2.38;;;1.63;;
19049;SDS011;9657;45.940;12.840;2022-07-06T05:09:17;1.65;;;1.40;;
19049;SDS011;9657;45.940;12.840;2022-07-06T05:11:44;2.13;;;1.40;;
19049;SDS011;9657;45.940;12.840;2022-07-06T05:14:11;2.03;;;1.60;;
19049;SDS011;9657;45.940;12.840;2022-07-06T05:16:38;2.30;;;2.05;;
19049;SDS011;9657;45.940;12.840;2022-07-06T05:19:07;2.35;;;1.40;;
19049;SDS011;9657;45.940;12.840;2022-07-06T05:21:34;1.77;;;1.67;;
19049;SDS011;9657;45.940;12.840;2022-07-06T05:24:01;2.30;;;1.73;;
19049;SDS011;9657;45.940;12.840;2022-07-06T05:26:28;3.38;;;2.20;;
19049;SDS011;9657;45.940;12.840;2022-07-06T05:28:55;1.58;;;1.42;;
19049;SDS011;9657;45.940;12.840;2022-07-06T05:31:22;2.33;;;1.77;;
19049;SDS011;9657;45.940;12.840;2022-07-06T05:33:49;2.22;;;1.50;;
19049;SDS011;9657;45.940;12.840;2022-07-06T05:36:18;2.35;;;1.85;;
19049;SDS011;9657;45.940;12.840;2022-07-06T05:38:45;2.85;;;2.00;;
19049;SDS011;9657;45.940;12.840;2022-07-06T05:41:12;2.17;;;1.58;;
19049;SDS011;9657;45.940;12.840;2022-07-06T05:43:39;1.85;;;1.75;;
19049;SDS011;9657;45.940;12.840;2022-07-06T05:46:06;3.55;;;1.90;;
19049;SDS011;9657;45.940;12.840;2022-07-06T05:48:33;2.97;;;1.70;;
19049;SDS011;9657;45.940;12.840;2022-07-06T05:51:19;2.03;;;1.88;;
19049;SDS011;9657;45.940;12.840;2022-07-06T05:53:46;4.07;;;2.05;;
19049;SDS011;9657;45.940;12.840;2022-07-06T05:56:13;3.20;;;1.83;;
19049;SDS011;9657;45.940;12.840;2022-07-06T05:58:40;1.88;;;1.77;;
19049;SDS011;9657;45.940;12.840;2022-07-06T06:01:07;2.28;;;1.90;;
19049;SDS011;9657;45.940;12.840;2022-07-06T06:03:35;1.70;;;1.50;;
19049;SDS011;9657;45.940;12.840;2022-07-06T06:06:02;2.60;;;1.80;;
19049;SDS011;9657;45.940;12.840;2022-07-06T06:08:31;3.30;;;2.10;;
19049;SDS011;9657;45.940;12.840;2022-07-06T06:10:58;2.22;;;1.70;;
19049;SDS011;9657;45.940;12.840;2022-07-06T06:13:25;2.05;;;1.85;;
19049;SDS011;9657;45.940;12.840;2022-07-06T06:15:52;2.60;;;1.95;;
19049;SDS011;9657;45.940;12.840;2022-07-06T06:18:19;1.95;;;1.75;;
19049;SDS011;9657;45.940;12.840;2022-07-06T06:20:46;2.45;;;1.70;;
19049;SDS011;9657;45.940;12.840;2022-07-06T06:23:14;2.72;;;1.63;;
19049;SDS011;9657;45.940;12.840;2022-07-06T06:25:42;3.00;;;1.70;;
19049;SDS011;9657;45.940;12.840;2022-07-06T06:28:10;4.20;;;1.70;;
19049;SDS011;9657;45.940;12.840;2022-07-06T06:30:37;1.85;;;1.75;;
19049;SDS011;9657;45.940;12.840;2022-07-06T06:33:05;1.85;;;1.70;;
19049;SDS011;9657;45.940;12.840;2022-07-06T06:35:37;1.70;;;1.55;;
19049;SDS011;9657;45.940;12.840;2022-07-06T06:38:05;2.03;;;1.63;;
19049;SDS011;9657;45.940;12.840;2022-07-06T06:40:32;2.78;;;1.60;;
19049;SDS011;9657;45.940;12.840;2022-07-06T06:43:00;2.63;;;1.52;;
19049;SDS011;9657;45.940;12.840;2022-07-06T06:45:27;2.90;;;2.10;;
19049;SDS011;9657;45.940;12.840;2022-07-06T06:47:54;1.77;;;1.58;;
19049;SDS011;9657;45.940;12.840;2022-07-06T06:50:22;2.65;;;1.95;;
19049;SDS011;9657;45.940;12.840;2022-07-06T06:52:49;1.55;;;1.40;;
19049;SDS011;9657;45.940;12.840;2022-07-06T06:55:16;1.50;;;1.40;;
19049;SDS011;9657;45.940;12.840;2022-07-06T06:57:43;2.35;;;1.77;;
19049;SDS011;9657;45.940;12.840;2022-07-06T07:00:13;2.25;;;1.45;;
19049;SDS011;9657;45.940;12.840;2022-07-06T07:02:40;2.33;;;1.58;;
19049;SDS011;9657;45.940;12.840;2022-07-06T07:05:08;1.80;;;1.67;;
19049;SDS011;9657;45.940;12.840;2022-07-06T07:07:35;3.17;;;1.98;;
19049;SDS011;9657;45.940;12.840;2022-07-06T07:10:03;2.38;;;1.77;;
19049;SDS011;9657;45.940;12.840;2022-07-06T07:12:31;1.90;;;1.58;;
19049;SDS011;9657;45.940;12.840;2022-07-06T07:14:58;2.05;;;1.63;;
19049;SDS011;9657;45.940;12.840;2022-07-06T07:17:27;2.28;;;1.80;;
19049;SDS011;9657;45.940;12.840;2022-07-06T07:19:54;2.00;;;1.60;;
19049;SDS011;9657;45.940;12.840;2022-07-06T07:22:22;2.58;;;1.60;;
19049;SDS011;9657;45.940;12.840;2022-07-06T07:24:49;3.38;;;1.30;;
19049;SDS011;9657;45.940;12.840;2022-07-06T07:27:16;2.08;;;1.52;;
19049;SDS011;9657;45.940;12.840;2022-07-06T07:29:43;1.73;;;1.63;;
19049;SDS011;9657;45.940;12.840;2022-07-06T07:32:10;2.00;;;1.70;;
19049;SDS011;9657;45.940;12.840;2022-07-06T07:34:39;2.50;;;1.40;;
19049;SDS011;9657;45.940;12.840;2022-07-06T07:37:06;1.60;;;1.50;;
19049;SDS011;9657;45.940;12.840;2022-07-06T07:39:33;2.33;;;1.58;;
19049;SDS011;9657;45.940;12.840;2022-07-06T07:42:00;1.70;;;1.60;;
19049;SDS011;9657;45.940;12.840;2022-07-06T07:44:27;2.88;;;1.70;;
19049;SDS011;9657;45.940;12.840;2022-07-06T07:46:54;1.52;;;1.33;;
19049;SDS011;9657;45.940;12.840;2022-07-06T07:49:21;1.73;;;1.50;;
19049;SDS011;9657;45.940;12.840;2022-07-06T07:51:50;1.60;;;1.50;;
19049;SDS011;9657;45.940;12.840;2022-07-06T07:54:17;1.30;;;1.20;;
19049;SDS011;9657;45.940;12.840;2022-07-06T07:56:44;1.40;;;1.30;;
19049;SDS011;9657;45.940;12.840;2022-07-06T07:59:11;1.73;;;1.63;;
19049;SDS011;9657;45.940;12.840;2022-07-06T08:01:39;1.67;;;1.55;;
19049;SDS011;9657;45.940;12.840;2022-07-06T08:04:06;1.38;;;1.27;;
19049;SDS011;9657;45.940;12.840;2022-07-06T08:06:34;1.73;;;1.52;;
19049;SDS011;9657;45.940;12.840;2022-07-06T08:09:02;1.40;;;1.27;;
19049;SDS011;9657;45.940;12.840;2022-07-06T08:11:32;1.67;;;1.38;;
19049;SDS011;9657;45.940;12.840;2022-07-06T08:13:59;2.35;;;1.35;;
19049;SDS011;9657;45.940;12.840;2022-07-06T08:16:27;1.83;;;1.40;;
19049;SDS011;9657;45.940;12.840;2022-07-06T08:18:54;1.35;;;1.25;;
19049;SDS011;9657;45.940;12.840;2022-07-06T08:21:21;1.40;;;1.30;;
19049;SDS011;9657;45.940;12.840;2022-07-06T08:23:48;1.40;;;1.30;;
19049;SDS011;9657;45.940;12.840;2022-07-06T08:26:17;2.58;;;1.45;;
19049;SDS011;9657;45.940;12.840;2022-07-06T08:28:44;1.30;;;1.20;;
19049;SDS011;9657;45.940;12.840;2022-07-06T08:31:11;1.55;;;1.17;;
19049;SDS011;9657;45.940;12.840;2022-07-06T08:33:38;2.63;;;1.50;;
19049;SDS011;9657;45.940;12.840;2022-07-06T08:36:06;2.13;;;1.20;;
19049;SDS011;9657;45.940;12.840;2022-07-06T08:38:33;2.53;;;1.38;;
19049;SDS011;9657;45.940;12.840;2022-07-06T08:41:00;1.17;;;1.10;;
19049;SDS011;9657;45.940;12.840;2022-07-06T08:43:29;1.50;;;1.40;;
19049;SDS011;9657;45.940;12.840;2022-07-06T08:45:56;1.38;;;1.27;;
19049;SDS011;9657;45.940;12.840;2022-07-06T08:48:24;1.20;;;1.10;;
19049;SDS011;9657;45.940;12.840;2022-07-06T08:50:52;1.63;;;1.15;;
19049;SDS011;9657;45.940;12.840;2022-07-06T08:53:20;2.40;;;1.25;;
19049;SDS011;9657;45.940;12.840;2022-07-06T08:55:48;1.40;;;1.30;;
19049;SDS011;9657;45.940;12.840;2022-07-06T08:58:16;2.03;;;1.30;;
19049;SDS011;9657;45.940;12.840;2022-07-06T09:00:45;1.27;;;1.17;;
19049;SDS011;9657;45.940;12.840;2022-07-06T09:03:12;1.50;;;1.40;;
19049;SDS011;9657;45.940;12.840;2022-07-06T09:05:40;1.20;;;1.10;;
19049;SDS011;9657;45.940;12.840;2022-07-06T09:08:10;1.75;;;1.52;;
19049;SDS011;9657;45.940;12.840;2022-07-06T09:10:38;1.50;;;1.40;;
19049;SDS011;9657;45.940;12.840;2022-07-06T09:13:06;1.50;;;1.40;;
19049;SDS011;9657;45.940;12.840;2022-07-06T09:15:34;2.25;;;1.45;;
19049;SDS011;9657;45.940;12.840;2022-07-06T09:18:05;1.63;;;1.35;;
19049;SDS011;9657;45.940;12.840;2022-07-06T09:20:33;2.28;;;1.50;;
19049;SDS011;9657;45.940;12.840;2022-07-06T09:23:01;1.98;;;1.35;;
19049;SDS011;9657;45.940;12.840;2022-07-06T09:25:29;1.88;;;1.48;;
19049;SDS011;9657;45.940;12.840;2022-07-06T09:27:58;1.50;;;1.40;;
19049;SDS011;9657;45.940;12.840;2022-07-06T09:30:26;1.35;;;1.25;;
19049;SDS011;9657;45.940;12.840;2022-07-06T09:32:55;1.55;;;1.35;;
19049;SDS011;9657;45.940;12.840;2022-07-06T09:35:25;2.75;;;1.58;;
19049;SDS011;9657;45.940;12.840;2022-07-06T09:38:00;2.40;;;1.33;;
19049;SDS011;9657;45.940;12.840;2022-07-06T09:40:29;1.83;;;1.55;;
19049;SDS011;9657;45.940;12.840;2022-07-06T09:43:07;1.25;;;1.15;;
19049;SDS011;9657;45.940;12.840;2022-07-06T09:45:35;1.55;;;1.35;;
19049;SDS011;9657;45.940;12.840;2022-07-06T09:48:08;1.42;;;1.33;;
19049;SDS011;9657;45.940;12.840;2022-07-06T09:50:41;2.72;;;1.90;;
19049;SDS011;9657;45.940;12.840;2022-07-06T09:53:09;2.00;;;1.40;;
19049;SDS011;9657;45.940;12.840;2022-07-06T09:55:37;1.83;;;1.40;;
19049;SDS011;9657;45.940;12.840;2022-07-06T09:58:04;3.42;;;1.67;;
19049;SDS011;9657;45.940;12.840;2022-07-06T10:00:31;2.25;;;1.65;;
19049;SDS011;9657;45.940;12.840;2022-07-06T10:02:59;1.58;;;1.48;;
19049;SDS011;9657;45.940;12.840;2022-07-06T10:05:27;1.80;;;1.45;;
19049;SDS011;9657;45.940;12.840;2022-07-06T10:07:58;2.22;;;1.67;;
19049;SDS011;9657;45.940;12.840;2022-07-06T10:10:26;2.60;;;1.52;;
19049;SDS011;9657;45.940;12.840;2022-07-06T10:12:54;2.08;;;1.40;;
19049;SDS011;9657;45.940;12.840;2022-07-06T10:15:23;5.13;;;1.90;;
19049;SDS011;9657;45.940;12.840;2022-07-06T10:17:52;1.50;;;1.40;;
19049;SDS011;9657;45.940;12.840;2022-07-06T10:20:21;3.97;;;2.10;;
19049;SDS011;9657;45.940;12.840;2022-07-06T10:22:49;2.53;;;1.55;;
19049;SDS011;9657;45.940;12.840;2022-07-06T10:25:18;2.13;;;1.77;;
19049;SDS011;9657;45.940;12.840;2022-07-06T10:27:46;2.08;;;1.50;;
19049;SDS011;9657;45.940;12.840;2022-07-06T10:30:14;2.25;;;1.38;;
19049;SDS011;9657;45.940;12.840;2022-07-06T10:32:42;3.45;;;1.50;;
19049;SDS011;9657;45.940;12.840;2022-07-06T10:35:10;2.33;;;1.38;;
19049;SDS011;9657;45.940;12.840;2022-07-06T10:37:38;2.15;;;1.27;;
19049;SDS011;9657;45.940;12.840;2022-07-06T10:40:06;2.17;;;1.17;;
19049;SDS011;9657;45.940;12.840;2022-07-06T10:42:57;3.10;;;1.48;;
19049;SDS011;9657;45.940;12.840;2022-07-06T10:48:18;2.63;;;1.70;;
19049;SDS011;9657;45.940;12.840;2022-07-06T10:50:48;1.90;;;1.20;;
19049;SDS011;9657;45.940;12.840;2022-07-06T10:53:17;1.40;;;1.30;;
19049;SDS011;9657;45.940;12.840;2022-07-06T10:55:49;2.70;;;1.60;;
19049;SDS011;9657;45.940;12.840;2022-07-06T10:58:41;2.65;;;1.30;;
19049;SDS011;9657;45.940;12.840;2022-07-06T11:01:16;1.42;;;1.33;;
19049;SDS011;9657;45.940;12.840;2022-07-06T11:03:44;1.52;;;1.20;;
19049;SDS011;9657;45.940;12.840;2022-07-06T11:06:13;3.28;;;1.83;;
19049;SDS011;9657;45.940;12.840;2022-07-06T11:08:49;1.40;;;1.30;;
19049;SDS011;9657;45.940;12.840;2022-07-06T11:11:17;1.23;;;1.13;;
19049;SDS011;9657;45.940;12.840;2022-07-06T11:13:53;1.30;;;1.20;;
19049;SDS011;9657;45.940;12.840;2022-07-06T11:16:22;1.48;;;1.25;;
19049;SDS011;9657;45.940;12.840;2022-07-06T11:19:02;1.17;;;1.02;;
19049;SDS011;9657;45.940;12.840;2022-07-06T11:21:43;2.20;;;1.40;;
19049;SDS011;9657;45.940;12.840;2022-07-06T11:24:12;1.35;;;1.23;;
19049;SDS011;9657;45.940;12.840;2022-07-06T11:26:41;1.48;;;1.38;;
19049;SDS011;9657;45.940;12.840;2022-07-06T11:29:11;1.10;;;1.02;;
19049;SDS011;9657;45.940;12.840;2022-07-06T11:31:39;1.90;;;1.73;;
19049;SDS011;9657;45.940;12.840;2022-07-06T11:34:07;2.83;;;1.27;;
19049;SDS011;9657;45.940;12.840;2022-07-06T11:36:36;1.30;;;1.20;;
19049;SDS011;9657;45.940;12.840;2022-07-06T11:39:04;2.25;;;1.40;;
19049;SDS011;9657;45.940;12.840;2022-07-06T11:41:31;2.08;;;1.27;;
19049;SDS011;9657;45.940;12.840;2022-07-06T11:43:59;1.23;;;1.13;;
19049;SDS011;9657;45.940;12.840;2022-07-06T11:46:28;2.28;;;1.20;;
19049;SDS011;9657;45.940;12.840;2022-07-06T11:48:57;1.38;;;1.27;;
19049;SDS011;9657;45.940;12.840;2022-07-06T11:51:27;1.10;;;1.00;;
19049;SDS011;9657;45.940;12.840;2022-07-06T11:53:56;1.70;;;1.38;;
19049;SDS011;9657;45.940;12.840;2022-07-06T11:56:25;1.75;;;1.10;;
19049;SDS011;9657;45.940;12.840;2022-07-06T11:58:53;1.30;;;1.20;;
19049;SDS011;9657;45.940;12.840;2022-07-06T12:01:21;0.93;;;0.93;;
19049;SDS011;9657;45.940;12.840;2022-07-06T12:03:51;1.30;;;1.20;;
19049;SDS011;9657;45.940;12.840;2022-07-06T12:06:18;2.42;;;1.17;;
19049;SDS011;9657;45.940;12.840;2022-07-06T12:08:47;2.40;;;1.20;;
19049;SDS011;9657;45.940;12.840;2022-07-06T12:11:16;1.33;;;1.23;;
19049;SDS011;9657;45.940;12.840;2022-07-06T12:13:47;1.20;;;1.10;;
19049;SDS011;9657;45.940;12.840;2022-07-06T12:16:15;2.00;;;1.27;;
19049;SDS011;9657;45.940;12.840;2022-07-06T12:18:43;1.40;;;1.10;;
19049;SDS011;9657;45.940;12.840;2022-07-06T12:21:14;1.30;;;1.20;;
19049;SDS011;9657;45.940;12.840;2022-07-06T12:23:43;1.77;;;1.05;;
19049;SDS011;9657;45.940;12.840;2022-07-06T12:26:12;1.17;;;1.10;;
19049;SDS011;9657;45.940;12.840;2022-07-06T12:28:40;1.08;;;1.08;;
19049;SDS011;9657;45.940;12.840;2022-07-06T12:31:08;2.08;;;1.27;;
19049;SDS011;9657;45.940;12.840;2022-07-06T12:33:36;1.48;;;1.00;;
19049;SDS011;9657;45.940;12.840;2022-07-06T12:36:14;1.20;;;1.10;;
19049;SDS011;9657;45.940;12.840;2022-07-06T12:38:45;1.30;;;1.20;;
19049;SDS011;9657;45.940;12.840;2022-07-06T12:41:26;1.63;;;1.05;;
19049;SDS011;9657;45.940;12.840;2022-07-06T12:44:02;1.55;;;1.20;;
19049;SDS011;9657;45.940;12.840;2022-07-06T12:46:33;2.13;;;1.00;;
19049;SDS011;9657;45.940;12.840;2022-07-06T12:49:02;1.00;;;0.90;;
19049;SDS011;9657;45.940;12.840;2022-07-06T12:51:50;1.40;;;1.30;;
19049;SDS011;9657;45.940;12.840;2022-07-06T12:54:19;1.10;;;1.00;;
19049;SDS011;9657;45.940;12.840;2022-07-06T12:56:55;1.67;;;1.27;;
19049;SDS011;9657;45.940;12.840;2022-07-06T12:59:23;1.30;;;1.20;;
19049;SDS011;9657;45.940;12.840;2022-07-06T13:01:51;1.70;;;1.23;;
19049;SDS011;9657;45.940;12.840;2022-07-06T13:04:21;1.20;;;1.10;;
19049;SDS011;9657;45.940;12.840;2022-07-06T13:06:48;1.08;;;0.98;;
19049;SDS011;9657;45.940;12.840;2022-07-06T13:09:17;1.95;;;1.23;;
19049;SDS011;9657;45.940;12.840;2022-07-06T13:11:44;2.25;;;1.15;;
19049;SDS011;9657;45.940;12.840;2022-07-06T13:14:12;1.08;;;1.05;;
19049;SDS011;9657;45.940;12.840;2022-07-06T13:16:39;1.30;;;1.20;;
19049;SDS011;9657;45.940;12.840;2022-07-06T13:19:06;1.20;;;1.10;;
19049;SDS011;9657;45.940;12.840;2022-07-06T13:21:34;1.13;;;1.05;;
19049;SDS011;9657;45.940;12.840;2022-07-06T13:24:03;1.02;;;1.00;;
19049;SDS011;9657;45.940;12.840;2022-07-06T13:26:31;0.95;;;0.95;;
19049;SDS011;9657;45.940;12.840;2022-07-06T13:28:58;1.38;;;1.17;;
19049;SDS011;9657;45.940;12.840;2022-07-06T13:31:26;1.35;;;1.10;;
19049;SDS011;9657;45.940;12.840;2022-07-06T13:33:53;1.10;;;1.10;;
19049;SDS011;9657;45.940;12.840;2022-07-06T13:36:20;0.80;;;0.80;;
19049;SDS011;9657;45.940;12.840;2022-07-06T13:38:48;0.98;;;0.88;;
19049;SDS011;9657;45.940;12.840;2022-07-06T13:41:17;1.17;;;1.10;;
19049;SDS011;9657;45.940;12.840;2022-07-06T13:43:44;1.48;;;1.30;;
19049;SDS011;9657;45.940;12.840;2022-07-06T13:46:12;1.17;;;1.08;;
19049;SDS011;9657;45.940;12.840;2022-07-06T13:48:39;0.90;;;0.90;;
19049;SDS011;9657;45.940;12.840;2022-07-06T13:51:06;1.02;;;1.02;;
19049;SDS011;9657;45.940;12.840;2022-07-06T13:53:33;0.93;;;0.90;;
19049;SDS011;9657;45.940;12.840;2022-07-06T13:56:00;1.35;;;1.08;;
19049;SDS011;9657;45.940;12.840;2022-07-06T13:58:28;1.17;;;0.90;;
19049;SDS011;9657;45.940;12.840;2022-07-06T14:00:55;1.15;;;1.05;;
19049;SDS011;9657;45.940;12.840;2022-07-06T14:03:23;1.48;;;1.00;;
19049;SDS011;9657;45.940;12.840;2022-07-06T14:05:54;1.60;;;1.20;;
19049;SDS011;9657;45.940;12.840;2022-07-06T14:08:23;1.10;;;1.00;;
19049;SDS011;9657;45.940;12.840;2022-07-06T14:10:50;0.80;;;0.80;;
19049;SDS011;9657;45.940;12.840;2022-07-06T14:13:18;1.20;;;1.10;;
19049;SDS011;9657;45.940;12.840;2022-07-06T14:15:47;0.93;;;0.90;;
19049;SDS011;9657;45.940;12.840;2022-07-06T14:18:14;0.80;;;0.80;;
19049;SDS011;9657;45.940;12.840;2022-07-06T14:20:42;1.17;;;1.00;;
19049;SDS011;9657;45.940;12.840;2022-07-06T14:23:09;0.93;;;0.93;;
19049;SDS011;9657;45.940;12.840;2022-07-06T14:25:37;1.20;;;0.93;;
19049;SDS011;9657;45.940;12.840;2022-07-06T14:28:04;1.13;;;1.08;;
19049;SDS011;9657;45.940;12.840;2022-07-06T14:30:32;1.00;;;1.00;;
19049;SDS011;9657;45.940;12.840;2022-07-06T14:33:03;1.08;;;0.98;;
19049;SDS011;9657;45.940;12.840;2022-07-06T14:35:33;0.95;;;0.85;;
19049;SDS011;9657;45.940;12.840;2022-07-06T14:38:01;1.10;;;1.00;;
19049;SDS011;9657;45.940;12.840;2022-07-06T14:40:28;0.85;;;0.85;;
19049;SDS011;9657;45.940;12.840;2022-07-06T14:42:55;1.13;;;1.00;;
19049;SDS011;9657;45.940;12.840;2022-07-06T14:45:23;1.05;;;0.95;;
19049;SDS011;9657;45.940;12.840;2022-07-06T14:47:50;1.08;;;1.00;;
19049;SDS011;9657;45.940;12.840;2022-07-06T14:50:18;1.25;;;1.00;;
19049;SDS011;9657;45.940;12.840;2022-07-06T14:52:48;1.00;;;0.90;;
19049;SDS011;9657;45.940;12.840;2022-07-06T14:55:15;2.40;;;1.02;;
19049;SDS011;9657;45.940;12.840;2022-07-06T14:57:42;1.02;;;0.98;;
19049;SDS011;9657;45.940;12.840;2022-07-06T15:00:10;1.00;;;1.00;;